New Orleans, Louisiana
Traffic Map
Current Weather Conditions
New Orleans, Louisiana
Few Clouds
Few Clouds

Feels Like: -5°
Wind Chill: -5° Ceiling: Unl
Heat Index: Visibility: 10mi
Dew Point: -4° Wind: 23mph
Humidity: 64% Direction: 10° (N)
Pressure: 30.45in Gusts: 30mph
Raw Report DataKNEW 060853Z AUTO 01020G26KT 10SM FEW021 02/M04 A3045 RMK AO2 PK WND 01028/0754 SLP302 T00171044 58004 TSNO
Traffic Incident Summary
Active as of:
Severity:
Category:
InformationThere was an issue retrieving the traffic information for this location. Please try a different location or try again shortly.
Advertisements
Track Severe Weather on mobile